createdAt,value
2023-03-18T00:04:28.094Z,408.45
2023-03-18T00:09:35.303Z,407.97
2023-03-18T00:14:42.550Z,407.67
2023-03-18T00:19:49.744Z,407.34
2023-03-18T00:24:57.324Z,406.92
2023-03-18T00:30:04.807Z,406.54
2023-03-18T00:35:12.312Z,406.24
2023-03-18T00:40:19.879Z,406.00
2023-03-18T00:45:27.402Z,405.36
2023-03-18T00:50:35.075Z,404.36
2023-03-18T00:55:42.497Z,404.65
2023-03-18T01:00:49.944Z,404.47
2023-03-18T01:05:57.314Z,404.64
2023-03-18T01:11:04.713Z,405.38
2023-03-18T01:16:12.212Z,405.26
2023-03-18T01:21:19.772Z,405.57
2023-03-18T01:26:28.165Z,405.60
2023-03-18T01:31:35.651Z,405.70
2023-03-18T01:36:42.951Z,405.41
2023-03-18T01:41:50.387Z,405.15
2023-03-18T01:46:57.683Z,405.45
2023-03-18T01:52:04.911Z,405.57
2023-03-18T01:57:12.206Z,405.51
2023-03-18T02:02:19.489Z,405.62
2023-03-18T02:07:26.680Z,405.07
2023-03-18T02:12:34.065Z,405.67
2023-03-18T02:17:43.028Z,405.80
2023-03-18T02:22:50.367Z,405.11
2023-03-18T02:27:57.617Z,405.19
2023-03-18T02:33:04.975Z,404.72
2023-03-18T02:38:12.054Z,404.52
2023-03-18T02:43:19.247Z,404.37
2023-03-18T02:48:26.492Z,404.52
2023-03-18T02:53:33.725Z,403.97
2023-03-18T02:58:41.121Z,403.87
2023-03-18T03:03:48.353Z,403.20
2023-03-18T03:08:55.598Z,403.34
2023-03-18T03:14:03.051Z,403.91
2023-03-18T03:19:10.353Z,403.80
2023-03-18T03:24:17.634Z,404.09
2023-03-18T03:29:25.000Z,403.59
2023-03-18T03:34:32.451Z,404.24
2023-03-18T03:39:39.817Z,404.01
2023-03-18T03:44:47.117Z,402.84
2023-03-18T03:49:57.417Z,402.08
2023-03-18T03:55:04.707Z,402.13
2023-03-18T04:00:12.113Z,402.25
2023-03-18T04:05:19.644Z,402.79
2023-03-18T04:10:26.972Z,402.62
2023-03-18T04:15:34.411Z,402.37
2023-03-18T04:20:41.759Z,403.08
2023-03-18T04:25:49.257Z,403.14
2023-03-18T04:30:56.744Z,402.39
2023-03-18T04:36:04.114Z,402.25
2023-03-18T04:41:11.453Z,402.09
2023-03-18T04:46:18.849Z,402.21
2023-03-18T04:51:26.197Z,401.84
2023-03-18T04:56:33.571Z,401.66
2023-03-18T05:01:40.981Z,401.50
2023-03-18T05:06:48.323Z,401.79
2023-03-18T05:11:55.594Z,402.23
2023-03-18T05:17:02.953Z,401.37
2023-03-18T05:22:10.384Z,401.95
2023-03-18T05:27:17.718Z,401.91
2023-03-18T05:32:24.947Z,401.82
2023-03-18T05:37:32.398Z,401.52
2023-03-18T05:42:55.068Z,401.19
2023-03-18T05:47:46.967Z,401.76
2023-03-18T05:52:54.242Z,401.66
2023-03-18T05:58:01.660Z,402.07
2023-03-18T06:03:10.530Z,401.33
2023-03-18T06:08:17.861Z,401.72
2023-03-18T06:13:25.181Z,401.75
2023-03-18T06:18:32.582Z,402.23
2023-03-18T06:23:40.136Z,401.89
2023-03-18T06:28:47.672Z,401.56
2023-03-18T06:33:55.123Z,401.81
2023-03-18T06:39:02.519Z,401.60
2023-03-18T06:44:09.910Z,401.38
2023-03-18T06:49:17.174Z,401.57
2023-03-18T06:54:24.825Z,400.98
2023-03-18T06:59:32.221Z,400.96
2023-03-18T07:04:39.720Z,401.26
2023-03-18T07:09:46.988Z,401.73
2023-03-18T07:14:54.651Z,401.56
2023-03-18T07:20:05.481Z,401.41
2023-03-18T07:25:12.748Z,401.27
2023-03-18T07:30:20.008Z,401.31
2023-03-18T07:35:27.449Z,401.00
2023-03-18T07:40:34.883Z,400.20
2023-03-18T07:45:42.158Z,399.98
2023-03-18T07:50:49.512Z,399.51
2023-03-18T07:55:56.907Z,400.32
2023-03-18T08:01:04.286Z,400.62
2023-03-18T08:06:23.217Z,400.40
2023-03-18T08:11:23.870Z,400.04
2023-03-18T08:16:31.282Z,398.76
2023-03-18T08:21:47.438Z,398.82
2023-03-18T08:26:50.423Z,399.32
2023-03-18T08:31:57.788Z,399.22
2023-03-18T08:37:05.122Z,399.36
2023-03-18T08:42:12.479Z,400.06
2023-03-18T08:47:20.089Z,400.22
2023-03-18T08:52:27.431Z,400.79
2023-03-18T08:57:34.811Z,400.97
2023-03-18T09:02:42.156Z,401.32
2023-03-18T09:07:49.477Z,401.61
2023-03-18T09:12:56.871Z,402.06
2023-03-18T09:18:12.188Z,402.56
2023-03-18T09:23:11.563Z,402.31
2023-03-18T09:28:23.043Z,402.81
2023-03-18T09:33:27.848Z,403.30
2023-03-18T09:38:35.260Z,403.45
2023-03-18T09:43:42.798Z,405.47
2023-03-18T09:48:50.389Z,406.24
2023-03-18T09:53:57.957Z,406.90
2023-03-18T09:59:05.635Z,406.53
2023-03-18T10:04:13.356Z,407.73
2023-03-18T10:09:21.806Z,407.83
2023-03-18T10:14:29.256Z,408.51
2023-03-18T10:19:36.657Z,408.09
2023-03-18T10:24:44.068Z,408.23
2023-03-18T10:29:55.593Z,407.90
2023-03-18T10:35:02.937Z,408.41
2023-03-18T10:40:10.226Z,407.85
2023-03-18T10:45:17.465Z,407.71
2023-03-18T10:50:24.771Z,408.19
2023-03-18T10:55:31.848Z,409.07
2023-03-18T11:00:39.117Z,409.63
2023-03-18T11:05:46.272Z,409.91
2023-03-18T11:10:53.458Z,410.58
2023-03-18T11:16:00.819Z,409.88
2023-03-18T11:21:08.135Z,409.57
2023-03-18T11:26:15.316Z,410.56
2023-03-18T11:31:22.520Z,410.96
2023-03-18T11:36:29.728Z,411.57
2023-03-18T11:41:36.968Z,412.20
2023-03-18T11:46:44.395Z,412.71
2023-03-18T11:51:51.518Z,412.77
2023-03-18T11:56:58.716Z,413.52
2023-03-18T12:02:06.103Z,413.97
2023-03-18T12:07:13.219Z,413.83
2023-03-18T12:12:20.390Z,414.26
2023-03-18T12:17:27.584Z,414.31
2023-03-18T12:22:34.736Z,415.67
2023-03-18T12:27:41.931Z,415.30
2023-03-18T12:32:49.294Z,416.45
2023-03-18T12:37:56.318Z,416.76
2023-03-18T12:43:03.556Z,416.91
2023-03-18T12:48:10.784Z,417.65
2023-03-18T12:53:17.957Z,418.54
2023-03-18T12:58:25.163Z,419.40
2023-03-18T13:03:32.393Z,420.06
2023-03-18T13:08:39.612Z,420.80
2023-03-18T13:13:46.783Z,421.56
2023-03-18T13:18:54.011Z,421.55
2023-03-18T13:24:01.194Z,422.10
2023-03-18T13:29:08.439Z,421.37
2023-03-18T13:34:15.648Z,421.40
2023-03-18T13:39:22.942Z,421.53
2023-03-18T13:44:30.338Z,421.87
2023-03-18T13:49:39.374Z,422.56
2023-03-18T13:54:47.294Z,422.28
2023-03-18T13:59:52.072Z,422.59
2023-03-18T14:04:59.268Z,422.66
2023-03-18T14:10:18.468Z,423.13
2023-03-18T14:15:13.608Z,423.10
2023-03-18T14:20:20.843Z,423.03
2023-03-18T14:25:27.990Z,423.33
2023-03-18T14:30:35.378Z,424.17
2023-03-18T14:35:42.602Z,425.24
2023-03-18T14:40:49.790Z,425.56
2023-03-18T14:45:57.119Z,424.88
2023-03-18T14:51:04.486Z,425.07
2023-03-18T14:56:11.911Z,425.04
2023-03-18T15:01:19.209Z,425.34
2023-03-18T15:06:26.433Z,425.96
2023-03-18T15:11:33.569Z,426.10
2023-03-18T15:16:40.879Z,426.08
2023-03-18T15:21:48.066Z,426.31
2023-03-18T15:26:55.306Z,426.36
2023-03-18T15:32:02.494Z,426.02
2023-03-18T15:37:09.773Z,425.56
2023-03-18T15:42:17.049Z,425.87
2023-03-18T15:47:24.256Z,426.28
2023-03-18T15:52:31.470Z,426.48
2023-03-18T15:57:38.857Z,426.40
2023-03-18T16:02:46.264Z,426.68
2023-03-18T16:07:53.409Z,426.19
2023-03-18T16:13:00.576Z,426.32
2023-03-18T16:18:07.761Z,426.12
2023-03-18T16:23:15.014Z,426.08
2023-03-18T16:28:22.252Z,425.99
2023-03-18T16:33:29.398Z,424.90
2023-03-18T16:38:36.628Z,424.51
2023-03-18T16:43:43.905Z,423.89
2023-03-18T16:48:51.282Z,424.01
2023-03-18T16:53:58.556Z,423.83
2023-03-18T16:59:05.734Z,424.09
2023-03-18T17:04:13.399Z,424.46
2023-03-18T17:09:20.895Z,423.24
2023-03-18T17:14:28.180Z,423.30
2023-03-18T17:19:35.440Z,423.30
2023-03-18T17:24:42.719Z,423.62
2023-03-18T17:29:50.255Z,423.99
2023-03-18T17:34:57.468Z,423.04
2023-03-18T17:40:05.048Z,422.91
2023-03-18T17:45:12.335Z,422.96
2023-03-18T17:50:19.614Z,422.71
2023-03-18T17:55:27.152Z,422.62
2023-03-18T18:00:34.758Z,422.58
2023-03-18T18:05:42.360Z,422.51
2023-03-18T18:10:49.760Z,421.86
2023-03-18T18:15:57.015Z,421.68
2023-03-18T18:21:04.204Z,420.90
2023-03-18T18:26:11.708Z,420.78
2023-03-18T18:31:19.107Z,419.89
2023-03-18T18:36:26.331Z,419.85
2023-03-18T18:41:33.928Z,420.03
2023-03-18T18:46:41.755Z,420.23
2023-03-18T18:51:49.356Z,419.64
2023-03-18T18:56:57.000Z,418.55
2023-03-18T19:02:04.586Z,417.58
2023-03-18T19:07:12.301Z,417.33
2023-03-18T19:12:20.038Z,417.37
2023-03-18T19:17:27.346Z,416.76
2023-03-18T19:22:34.832Z,416.07
2023-03-18T19:27:42.583Z,416.04
2023-03-18T19:32:50.326Z,415.47
2023-03-18T19:37:57.889Z,414.74
2023-03-18T19:43:05.621Z,414.63
2023-03-18T19:48:13.157Z,414.52
2023-03-18T19:53:20.822Z,413.82
2023-03-18T19:58:28.490Z,412.77
2023-03-18T20:03:36.154Z,412.09
2023-03-18T20:08:43.873Z,412.20
2023-03-18T20:13:51.987Z,411.51
2023-03-18T20:18:59.306Z,411.13
2023-03-18T20:24:06.923Z,410.89
2023-03-18T20:29:14.535Z,410.98
2023-03-18T20:34:22.257Z,410.66
2023-03-18T20:39:30.493Z,410.42
2023-03-18T20:44:37.935Z,410.29
2023-03-18T20:49:45.515Z,409.74
2023-03-18T20:54:53.129Z,408.90
2023-03-18T21:00:00.789Z,408.79
2023-03-18T21:05:08.354Z,408.66
2023-03-18T21:10:15.874Z,408.38
2023-03-18T21:15:23.427Z,408.67
2023-03-18T21:20:30.992Z,408.41
2023-03-18T21:25:38.605Z,407.80
2023-03-18T21:30:46.183Z,408.32
2023-03-18T21:35:53.298Z,408.08
2023-03-18T21:41:00.788Z,408.03
2023-03-18T21:46:08.095Z,407.60
2023-03-18T21:51:19.993Z,407.27
2023-03-18T21:56:22.455Z,406.98
2023-03-18T22:01:29.790Z,406.66
2023-03-18T22:06:36.917Z,406.56
2023-03-18T22:11:44.490Z,406.32
2023-03-18T22:16:51.898Z,407.63
2023-03-18T22:21:59.039Z,407.58
2023-03-18T22:27:06.314Z,407.17
2023-03-18T22:32:13.524Z,407.85
2023-03-18T22:37:20.696Z,406.89
2023-03-18T22:42:27.905Z,406.06
2023-03-18T22:47:35.080Z,406.65
2023-03-18T22:52:42.235Z,406.52
2023-03-18T22:57:49.427Z,406.04
2023-03-18T23:02:56.724Z,405.45
2023-03-18T23:08:03.848Z,405.09
2023-03-18T23:13:11.417Z,404.84
2023-03-18T23:18:18.889Z,404.96
2023-03-18T23:23:26.574Z,404.76
2023-03-18T23:28:43.649Z,404.64
2023-03-18T23:33:46.844Z,404.59
2023-03-18T23:39:02.138Z,404.25
2023-03-18T23:44:42.710Z,404.12
2023-03-18T23:49:50.635Z,403.54
2023-03-18T23:55:32.718Z,403.60
